Wetterdaten: Sonntag, 01.05.2011
Datum Zeit Temp. A. Feuchte A. Luftdruck Regen Wind Richtung Richtung Sonnenschein UV Solar Windben
01.05.2011 00:00 11,3 C 48 % 1011,3 hPa 0,0 mm 4,8 km/h (1 Bft) O-NO 67 0 min 0 UV-I 0 W/m 17,7 km/h (3 Bft)
01.05.2011 00:10 11,1 C 48 % 1011,3 hPa 0,0 mm 4,8 km/h (1 Bft) O 90 0 min 0 UV-I 0 W/m 16,1 km/h (3 Bft)
01.05.2011 00:20 10,9 C 49 % 1011,3 hPa 0,0 mm 6,4 km/h (2 Bft) O 90 0 min 0 UV-I 0 W/m 17,7 km/h (3 Bft)
01.05.2011 00:30 10,7 C 50 % 1011,4 hPa 0,0 mm 3,2 km/h (1 Bft) O 90 0 min 0 UV-I 0 W/m 11,3 km/h (2 Bft)
01.05.2011 00:40 10,3 C 52 % 1011,6 hPa 0,0 mm 3,2 km/h (1 Bft) O-NO 67 0 min 0 UV-I 0 W/m 16,1 km/h (3 Bft)
01.05.2011 00:50 10,2 C 52 % 1011,6 hPa 0,0 mm 3,2 km/h (1 Bft) O 90 0 min 0 UV-I 0 W/m 17,7 km/h (3 Bft)
01.05.2011 01:00 9,9 C 54 % 1011,6 hPa 0,0 mm 4,8 km/h (1 Bft) O 90 0 min 0 UV-I 0 W/m 17,7 km/h (3 Bft)
01.05.2011 01:10 9,9 C 54 % 1011,7 hPa 0,0 mm 3,2 km/h (1 Bft) O 90 0 min 0 UV-I 0 W/m 12,9 km/h (3 Bft)
01.05.2011 01:20 9,8 C 55 % 1011,6 hPa 0,0 mm 4,8 km/h (1 Bft) O-NO 67 0 min 0 UV-I 0 W/m 16,1 km/h (3 Bft)
01.05.2011 01:30 9,7 C 56 % 1011,6 hPa 0,0 mm 1,6 km/h (1 Bft) NO 45 0 min 0 UV-I 0 W/m 8,0 km/h (2 Bft)
01.05.2011 01:40 9,5 C 57 % 1011,6 hPa 0,0 mm 1,6 km/h (1 Bft) N-NO 22 0 min 0 UV-I 0 W/m 8,0 km/h (2 Bft)
01.05.2011 01:50 9,3 C 57 % 1011,6 hPa 0,0 mm 1,6 km/h (1 Bft) O 90 0 min 0 UV-I 0 W/m 9,7 km/h (2 Bft)
01.05.2011 02:00 8,9 C 59 % 1011,7 hPa 0,0 mm 0,0 km/h (0 Bft) O-NO 67 0 min 0 UV-I 0 W/m 4,8 km/h (1 Bft)
01.05.2011 02:10 8,6 C 60 % 1011,6 hPa 0,0 mm 0,0 km/h (0 Bft) O-NO 67 0 min 0 UV-I 0 W/m 4,8 km/h (1 Bft)
01.05.2011 02:20 8,3 C 60 % 1011,5 hPa 0,0 mm 0,0 km/h (0 Bft) O-NO 67 0 min 0 UV-I 0 W/m 4,8 km/h (1 Bft)
01.05.2011 02:30 8,3 C 60 % 1011,5 hPa 0,0 mm 0,0 km/h (0 Bft) O 90 0 min 0 UV-I 0 W/m 4,8 km/h (1 Bft)
01.05.2011 02:40 8,3 C 61 % 1011,5 hPa 0,0 mm 0,0 km/h (0 Bft) O 90 0 min 0 UV-I 0 W/m 4,8 km/h (1 Bft)
01.05.2011 02:50 8,0 C 63 % 1011,6 hPa 0,0 mm 0,0 km/h (0 Bft) N 0 0 min 0 UV-I 0 W/m 0,0 km/h (0 Bft)
01.05.2011 03:00 7,8 C 65 % 1011,5 hPa 0,0 mm 0,0 km/h (0 Bft) N 0 0 min 0 UV-I 0 W/m 0,0 km/h (0 Bft)
01.05.2011 03:10 7,3 C 66 % 1011,4 hPa 0,0 mm 0,0 km/h (0 Bft) O 90 0 min 0 UV-I 0 W/m 1,6 km/h (1 Bft)
01.05.2011 03:20 7,2 C 68 % 1011,4 hPa 0,0 mm 0,0 km/h (0 Bft) O 90 0 min 0 UV-I 0 W/m 1,6 km/h (1 Bft)
01.05.2011 03:30 7,1 C 67 % 1011,4 hPa 0,0 mm 0,0 km/h (0 Bft) O 90 0 min 0 UV-I 0 W/m 3,2 km/h (1 Bft)
01.05.2011 03:40 6,9 C 68 % 1011,3 hPa 0,0 mm 0,0 km/h (0 Bft) O-NO 67 0 min 0 UV-I 0 W/m 3,2 km/h (1 Bft)
01.05.2011 03:50 6,7 C 67 % 1011,4 hPa 0,0 mm 0,0 km/h (0 Bft) NO 45 0 min 0 UV-I 0 W/m 3,2 km/h (1 Bft)
01.05.2011 04:00 6,6 C 67 % 1011,5 hPa 0,0 mm 0,0 km/h (0 Bft) NO 45 0 min 0 UV-I 0 W/m 3,2 km/h (1 Bft)
01.05.2011 04:10 6,4 C 67 % 1011,5 hPa 0,0 mm 0,0 km/h (0 Bft) NO 45 0 min 0 UV-I 0 W/m 3,2 km/h (1 Bft)
01.05.2011 04:20 6,4 C 67 % 1011,4 hPa 0,0 mm 0,0 km/h (0 Bft) NO 45 0 min 0 UV-I 0 W/m 3,2 km/h (1 Bft)
01.05.2011 04:30 6,4 C 67 % 1011,5 hPa 0,0 mm 0,0 km/h (0 Bft) N-NO 22 0 min 0 UV-I 0 W/m 6,4 km/h (2 Bft)
01.05.2011 04:40 6,3 C 68 % 1011,4 hPa 0,0 mm 0,0 km/h (0 Bft) N-NO 22 0 min 0 UV-I 0 W/m 1,6 km/h (1 Bft)
01.05.2011 04:50 6,3 C 67 % 1011,5 hPa 0,0 mm 0,0 km/h (0 Bft) N-NO 22 0 min 0 UV-I 0 W/m 6,4 km/h (2 Bft)
01.05.2011 05:00 6,3 C 67 % 1011,5 hPa 0,0 mm 0,0 km/h (0 Bft) N 360 0 min 0 UV-I 0 W/m 3,2 km/h (1 Bft)
01.05.2011 05:10 6,1 C 67 % 1011,3 hPa 0,0 mm 0,0 km/h (0 Bft) N 360 0 min 0 UV-I 0 W/m 1,6 km/h (1 Bft)
01.05.2011 05:20 5,9 C 67 % 1011,3 hPa 0,0 mm 0,0 km/h (0 Bft) N 360 0 min 0 UV-I 0 W/m 1,6 km/h (1 Bft)
01.05.2011 05:30 5,7 C 68 % 1011,5 hPa 0,0 mm 0,0 km/h (0 Bft) N 360 0 min 0 UV-I 0 W/m 4,8 km/h (1 Bft)
01.05.2011 05:40 5,5 C 70 % 1011,5 hPa 0,0 mm 0,0 km/h (0 Bft) N 360 0 min 0 UV-I 0 W/m 1,6 km/h (1 Bft)
01.05.2011 05:50 5,2 C 71 % 1011,4 hPa 0,0 mm 0,0 km/h (0 Bft) N 0 0 min 0 UV-I 0 W/m 0,0 km/h (0 Bft)
01.05.2011 06:00 5,1 C 71 % 1011,5 hPa 0,0 mm 0,0 km/h (0 Bft) N 0 0 min 0 UV-I 0 W/m 0,0 km/h (0 Bft)
01.05.2011 06:10 5,1 C 71 % 1011,5 hPa 0,0 mm 0,0 km/h (0 Bft) N 0 0 min 0 UV-I 7 W/m 0,0 km/h (0 Bft)
01.05.2011 06:20 4,9 C 72 % 1011,6 hPa 0,0 mm 0,0 km/h (0 Bft) N 0 0 min 0 UV-I 12 W/m 0,0 km/h (0 Bft)
01.05.2011 06:30 5,0 C 73 % 1011,8 hPa 0,0 mm 0,0 km/h (0 Bft) N 0 0 min 0 UV-I 18 W/m 0,0 km/h (0 Bft)
01.05.2011 06:40 5,2 C 72 % 1011,6 hPa 0,0 mm 0,0 km/h (0 Bft) N 360 0 min 0 UV-I 21 W/m 1,6 km/h (1 Bft)
01.05.2011 06:50 5,3 C 72 % 1011,7 hPa 0,0 mm 0,0 km/h (0 Bft) N-NO 22 0 min 0 UV-I 28 W/m 3,2 km/h (1 Bft)
01.05.2011 07:00 5,5 C 71 % 1011,9 hPa 0,0 mm 0,0 km/h (0 Bft) N 0 0 min 0 UV-I 35 W/m 0,0 km/h (0 Bft)
01.05.2011 07:10 5,8 C 71 % 1012,0 hPa 0,0 mm 0,0 km/h (0 Bft) N-NO 22 0 min 0 UV-I 44 W/m 4,8 km/h (1 Bft)
01.05.2011 07:20 6,1 C 71 % 1012,0 hPa 0,0 mm 1,6 km/h (1 Bft) N-NO 22 0 min 0 UV-I 100 W/m 9,7 km/h (2 Bft)
01.05.2011 07:30 6,6 C 69 % 1012,0 hPa 0,0 mm 1,6 km/h (1 Bft) N 360 10 min 1 UV-I 135 W/m 8,0 km/h (2 Bft)
01.05.2011 07:40 7,0 C 68 % 1012,0 hPa 0,0 mm 1,6 km/h (1 Bft) NO 45 10 min 1 UV-I 158 W/m 6,4 km/h (2 Bft)
01.05.2011 07:50 7,5 C 67 % 1012,0 hPa 0,0 mm 3,2 km/h (1 Bft) O 90 10 min 1 UV-I 199 W/m 8,0 km/h (2 Bft)
01.05.2011 08:00 8,0 C 66 % 1012,1 hPa 0,0 mm 1,6 km/h (1 Bft) O-SO 112 10 min 1 UV-I 227 W/m 8,0 km/h (2 Bft)
01.05.2011 08:10 8,4 C 65 % 1012,1 hPa 0,0 mm 1,6 km/h (1 Bft) O 90 10 min 1 UV-I 255 W/m 4,8 km/h (1 Bft)
01.05.2011 08:20 8,9 C 63 % 1012,3 hPa 0,0 mm 3,2 km/h (1 Bft) O-SO 112 10 min 1 UV-I 279 W/m 11,3 km/h (2 Bft)
01.05.2011 08:30 9,3 C 62 % 1012,3 hPa 0,0 mm 6,4 km/h (2 Bft) O 90 10 min 1 UV-I 308 W/m 16,1 km/h (3 Bft)
01.05.2011 08:40 9,6 C 62 % 1012,4 hPa 0,0 mm 4,8 km/h (1 Bft) O 90 10 min 1 UV-I 339 W/m 14,5 km/h (3 Bft)
01.05.2011 08:50 10,0 C 60 % 1012,6 hPa 0,0 mm 4,8 km/h (1 Bft) O-NO 67 10 min 1 UV-I 367 W/m 11,3 km/h (2 Bft)
01.05.2011 09:00 10,4 C 60 % 1012,5 hPa 0,0 mm 4,8 km/h (1 Bft) O-NO 67 10 min 2 UV-I 396 W/m 16,1 km/h (3 Bft)
01.05.2011 09:10 10,9 C 59 % 1012,5 hPa 0,0 mm 3,2 km/h (1 Bft) O-NO 67 10 min 2 UV-I 424 W/m 12,9 km/h (3 Bft)
01.05.2011 09:20 11,2 C 59 % 1012,7 hPa 0,0 mm 4,8 km/h (1 Bft) NO 45 10 min 2 UV-I 452 W/m 12,9 km/h (3 Bft)
01.05.2011 09:30 11,5 C 57 % 1012,8 hPa 0,0 mm 8,0 km/h (2 Bft) O-NO 67 10 min 2 UV-I 476 W/m 19,3 km/h (3 Bft)
01.05.2011 09:40 11,6 C 57 % 1012,7 hPa 0,0 mm 6,4 km/h (2 Bft) O-NO 67 10 min 2 UV-I 504 W/m 17,7 km/h (3 Bft)
01.05.2011 09:50 11,9 C 56 % 1012,6 hPa 0,0 mm 4,8 km/h (1 Bft) O-NO 67 10 min 3 UV-I 531 W/m 17,7 km/h (3 Bft)
01.05.2011 10:00 12,4 C 56 % 1012,6 hPa 0,0 mm 6,4 km/h (2 Bft) NO 45 10 min 3 UV-I 557 W/m 19,3 km/h (3 Bft)
01.05.2011 10:10 12,9 C 54 % 1012,7 hPa 0,0 mm 4,8 km/h (1 Bft) O 90 10 min 3 UV-I 578 W/m 11,3 km/h (2 Bft)
01.05.2011 10:20 13,3 C 53 % 1012,7 hPa 0,0 mm 4,8 km/h (1 Bft) O-NO 67 10 min 3 UV-I 606 W/m 17,7 km/h (3 Bft)
01.05.2011 10:30 13,7 C 51 % 1012,7 hPa 0,0 mm 8,0 km/h (2 Bft) O 90 10 min 4 UV-I 642 W/m 19,3 km/h (3 Bft)
01.05.2011 10:40 14,1 C 51 % 1012,7 hPa 0,0 mm 9,7 km/h (2 Bft) O 90 10 min 4 UV-I 657 W/m 20,9 km/h (4 Bft)
01.05.2011 10:50 14,7 C 47 % 1012,8 hPa 0,0 mm 6,4 km/h (2 Bft) O-NO 67 10 min 4 UV-I 677 W/m 20,9 km/h (4 Bft)
01.05.2011 11:00 15,1 C 47 % 1012,7 hPa 0,0 mm 8,0 km/h (2 Bft) O 90 10 min 4 UV-I 696 W/m 22,5 km/h (4 Bft)
01.05.2011 11:10 15,6 C 44 % 1012,6 hPa 0,0 mm 8,0 km/h (2 Bft) O-SO 112 10 min 4 UV-I 717 W/m 19,3 km/h (3 Bft)
01.05.2011 11:20 15,6 C 43 % 1012,7 hPa 0,0 mm 8,0 km/h (2 Bft) O-NO 67 10 min 5 UV-I 737 W/m 25,7 km/h (4 Bft)
01.05.2011 11:30 15,9 C 43 % 1012,6 hPa 0,0 mm 9,7 km/h (2 Bft) O 90 10 min 5 UV-I 756 W/m 20,9 km/h (4 Bft)
01.05.2011 11:40 15,9 C 43 % 1012,6 hPa 0,0 mm 8,0 km/h (2 Bft) O-NO 67 10 min 5 UV-I 775 W/m 20,9 km/h (4 Bft)
01.05.2011 11:50 16,3 C 42 % 1012,5 hPa 0,0 mm 6,4 km/h (2 Bft) NO 45 10 min 5 UV-I 791 W/m 17,7 km/h (3 Bft)
01.05.2011 12:00 16,4 C 41 % 1012,5 hPa 0,0 mm 8,0 km/h (2 Bft) O 90 10 min 5 UV-I 809 W/m 22,5 km/h (4 Bft)
01.05.2011 12:10 16,4 C 40 % 1012,6 hPa 0,0 mm 9,7 km/h (2 Bft) O 90 10 min 6 UV-I 819 W/m 22,5 km/h (4 Bft)
01.05.2011 12:20 16,5 C 40 % 1012,6 hPa 0,0 mm 8,0 km/h (2 Bft) O-NO 67 10 min 6 UV-I 833 W/m 20,9 km/h (4 Bft)
01.05.2011 12:30 16,8 C 38 % 1012,5 hPa 0,0 mm 8,0 km/h (2 Bft) O 90 10 min 6 UV-I 844 W/m 24,1 km/h (4 Bft)
01.05.2011 12:40 17,3 C 36 % 1012,6 hPa 0,0 mm 8,0 km/h (2 Bft) O-NO 67 10 min 6 UV-I 844 W/m 20,9 km/h (4 Bft)
01.05.2011 12:50 17,2 C 37 % 1012,5 hPa 0,0 mm 9,7 km/h (2 Bft) O-NO 67 10 min 6 UV-I 865 W/m 20,9 km/h (4 Bft)
01.05.2011 13:00 17,3 C 34 % 1012,6 hPa 0,0 mm 11,3 km/h (2 Bft) O 90 10 min 6 UV-I 868 W/m 27,4 km/h (4 Bft)
01.05.2011 13:10 17,2 C 35 % 1012,6 hPa 0,0 mm 11,3 km/h (2 Bft) O 90 10 min 6 UV-I 875 W/m 29,0 km/h (5 Bft)
01.05.2011 13:20 17,4 C 35 % 1012,5 hPa 0,0 mm 9,7 km/h (2 Bft) O 90 10 min 6 UV-I 877 W/m 25,7 km/h (4 Bft)
01.05.2011 13:30 17,6 C 38 % 1012,5 hPa 0,0 mm 9,7 km/h (2 Bft) O 90 10 min 6 UV-I 879 W/m 24,1 km/h (4 Bft)
01.05.2011 13:40 17,9 C 38 % 1012,4 hPa 0,0 mm 6,4 km/h (2 Bft) O-NO 67 10 min 6 UV-I 877 W/m 17,7 km/h (3 Bft)
01.05.2011 13:50 18,2 C 35 % 1012,5 hPa 0,0 mm 6,4 km/h (2 Bft) O-NO 67 10 min 6 UV-I 875 W/m 17,7 km/h (3 Bft)
01.05.2011 14:00 18,3 C 39 % 1012,4 hPa 0,0 mm 6,4 km/h (2 Bft) O-NO 67 10 min 6 UV-I 875 W/m 17,7 km/h (3 Bft)
01.05.2011 14:10 18,4 C 39 % 1012,5 hPa 0,0 mm 8,0 km/h (2 Bft) O 90 10 min 6 UV-I 870 W/m 20,9 km/h (4 Bft)
01.05.2011 14:20 18,0 C 40 % 1012,4 hPa 0,0 mm 8,0 km/h (2 Bft) NO 45 10 min 6 UV-I 863 W/m 27,4 km/h (4 Bft)
01.05.2011 14:30 18,2 C 38 % 1012,3 hPa 0,0 mm 8,0 km/h (2 Bft) O 90 10 min 5 UV-I 856 W/m 22,5 km/h (4 Bft)
01.05.2011 14:40 18,5 C 37 % 1012,2 hPa 0,0 mm 6,4 km/h (2 Bft) O 90 10 min 5 UV-I 846 W/m 20,9 km/h (4 Bft)
01.05.2011 14:50 18,6 C 36 % 1012,1 hPa 0,0 mm 8,0 km/h (2 Bft) O-NO 67 10 min 5 UV-I 838 W/m 22,5 km/h (4 Bft)
01.05.2011 15:00 18,0 C 38 % 1012,2 hPa 0,0 mm 9,7 km/h (2 Bft) O-NO 67 10 min 5 UV-I 830 W/m 22,5 km/h (4 Bft)
01.05.2011 15:10 18,5 C 37 % 1012,0 hPa 0,0 mm 6,4 km/h (2 Bft) O-NO 67 10 min 5 UV-I 817 W/m 20,9 km/h (4 Bft)
01.05.2011 15:20 18,9 C 36 % 1012,1 hPa 0,0 mm 6,4 km/h (2 Bft) O 90 10 min 5 UV-I 807 W/m 17,7 km/h (3 Bft)
01.05.2011 15:30 18,8 C 37 % 1012,0 hPa 0,0 mm 6,4 km/h (2 Bft) O 90 10 min 5 UV-I 791 W/m 17,7 km/h (3 Bft)
01.05.2011 15:40 19,2 C 38 % 1012,0 hPa 0,0 mm 6,4 km/h (2 Bft) O 90 10 min 4 UV-I 770 W/m 16,1 km/h (3 Bft)
01.05.2011 15:50 19,2 C 37 % 1011,7 hPa 0,0 mm 6,4 km/h (2 Bft) O-NO 67 10 min 4 UV-I 759 W/m 19,3 km/h (3 Bft)
01.05.2011 16:00 19,4 C 38 % 1011,6 hPa 0,0 mm 6,4 km/h (2 Bft) O 90 10 min 4 UV-I 740 W/m 17,7 km/h (3 Bft)
01.05.2011 16:10 19,1 C 36 % 1011,6 hPa 0,0 mm 6,4 km/h (2 Bft) O-NO 67 10 min 4 UV-I 722 W/m 16,1 km/h (3 Bft)
01.05.2011 16:20 19,2 C 37 % 1011,4 hPa 0,0 mm 6,4 km/h (2 Bft) O-NO 67 10 min 3 UV-I 700 W/m 20,9 km/h (4 Bft)
01.05.2011 16:30 19,2 C 37 % 1011,4 hPa 0,0 mm 6,4 km/h (2 Bft) NO 45 10 min 3 UV-I 680 W/m 22,5 km/h (4 Bft)
01.05.2011 16:40 19,3 C 36 % 1011,4 hPa 0,0 mm 6,4 km/h (2 Bft) O 90 10 min 3 UV-I 657 W/m 20,9 km/h (4 Bft)
01.05.2011 16:50 19,1 C 37 % 1011,4 hPa 0,0 mm 8,0 km/h (2 Bft) O 90 10 min 3 UV-I 631 W/m 20,9 km/h (4 Bft)
01.05.2011 17:00 19,2 C 35 % 1011,2 hPa 0,0 mm 6,4 km/h (2 Bft) O-NO 67 10 min 3 UV-I 601 W/m 17,7 km/h (3 Bft)
01.05.2011 17:10 19,1 C 36 % 1011,0 hPa 0,0 mm 6,4 km/h (2 Bft) O-NO 67 10 min 2 UV-I 580 W/m 16,1 km/h (3 Bft)
01.05.2011 17:20 19,1 C 38 % 1011,1 hPa 0,0 mm 4,8 km/h (1 Bft) O-NO 67 10 min 2 UV-I 555 W/m 19,3 km/h (3 Bft)
01.05.2011 17:30 18,8 C 38 % 1011,1 hPa 0,0 mm 6,4 km/h (2 Bft) O 90 10 min 2 UV-I 515 W/m 19,3 km/h (3 Bft)
01.05.2011 17:40 18,8 C 38 % 1011,1 hPa 0,0 mm 6,4 km/h (2 Bft) NO 45 10 min 2 UV-I 494 W/m 19,3 km/h (3 Bft)
01.05.2011 17:50 18,6 C 38 % 1011,2 hPa 0,0 mm 6,4 km/h (2 Bft) O-NO 67 10 min 2 UV-I 473 W/m 19,3 km/h (3 Bft)
01.05.2011 18:00 18,2 C 38 % 1011,2 hPa 0,0 mm 6,4 km/h (2 Bft) O-NO 67 10 min 2 UV-I 441 W/m 19,3 km/h (3 Bft)
01.05.2011 18:10 17,9 C 39 % 1011,1 hPa 0,0 mm 6,4 km/h (2 Bft) N-NO 22 10 min 1 UV-I 413 W/m 19,3 km/h (3 Bft)
01.05.2011 18:20 17,9 C 39 % 1011,3 hPa 0,0 mm 6,4 km/h (2 Bft) O 90 10 min 1 UV-I 381 W/m 16,1 km/h (3 Bft)
01.05.2011 18:30 18,1 C 38 % 1011,2 hPa 0,0 mm 4,8 km/h (1 Bft) O 90 10 min 1 UV-I 352 W/m 19,3 km/h (3 Bft)
01.05.2011 18:40 17,9 C 38 % 1011,2 hPa 0,0 mm 4,8 km/h (1 Bft) O 90 10 min 1 UV-I 316 W/m 11,3 km/h (2 Bft)
01.05.2011 18:50 17,6 C 38 % 1011,1 hPa 0,0 mm 4,8 km/h (1 Bft) O-NO 67 10 min 1 UV-I 297 W/m 16,1 km/h (3 Bft)
01.05.2011 19:00 17,3 C 39 % 1011,2 hPa 0,0 mm 4,8 km/h (1 Bft) O 90 10 min 1 UV-I 265 W/m 14,5 km/h (3 Bft)
01.05.2011 19:10 17,1 C 39 % 1011,3 hPa 0,0 mm 6,4 km/h (2 Bft) O-NO 67 10 min 1 UV-I 237 W/m 20,9 km/h (4 Bft)
01.05.2011 19:20 16,6 C 39 % 1011,4 hPa 0,0 mm 8,0 km/h (2 Bft) O-NO 67 10 min 1 UV-I 209 W/m 19,3 km/h (3 Bft)
01.05.2011 19:30 15,9 C 40 % 1011,5 hPa 0,0 mm 4,8 km/h (1 Bft) O-NO 67 10 min 1 UV-I 183 W/m 19,3 km/h (3 Bft)
01.05.2011 19:40 15,3 C 41 % 1011,6 hPa 0,0 mm 3,2 km/h (1 Bft) O-NO 67 10 min 1 UV-I 139 W/m 16,1 km/h (3 Bft)
01.05.2011 19:50 14,8 C 40 % 1011,7 hPa 0,0 mm 4,8 km/h (1 Bft) O-NO 67 0 min 0 UV-I 30 W/m 19,3 km/h (3 Bft)
01.05.2011 20:00 14,5 C 42 % 1011,6 hPa 0,0 mm 3,2 km/h (1 Bft) O 90 0 min 0 UV-I 26 W/m 11,3 km/h (2 Bft)
01.05.2011 20:10 14,2 C 42 % 1011,6 hPa 0,0 mm 3,2 km/h (1 Bft) NO 45 0 min 0 UV-I 23 W/m 9,7 km/h (2 Bft)
01.05.2011 20:20 13,9 C 44 % 1011,5 hPa 0,0 mm 1,6 km/h (1 Bft) O-NO 67 0 min 0 UV-I 19 W/m 9,7 km/h (2 Bft)
01.05.2011 20:30 13,4 C 44 % 1011,6 hPa 0,0 mm 1,6 km/h (1 Bft) O-NO 67 0 min 0 UV-I 16 W/m 8,0 km/h (2 Bft)
01.05.2011 20:40 13,1 C 45 % 1011,6 hPa 0,0 mm 1,6 km/h (1 Bft) O-NO 67 0 min 0 UV-I 11 W/m 9,7 km/h (2 Bft)
01.05.2011 20:50 12,8 C 47 % 1011,8 hPa 0,0 mm 1,6 km/h (1 Bft) N-NO 22 0 min 0 UV-I 0 W/m 6,4 km/h (2 Bft)
01.05.2011 21:00 12,4 C 49 % 1011,8 hPa 0,0 mm 0,0 km/h (0 Bft) N-NO 22 0 min 0 UV-I 0 W/m 4,8 km/h (1 Bft)
01.05.2011 21:10 11,9 C 51 % 1011,8 hPa 0,0 mm 0,0 km/h (0 Bft) N-NO 22 0 min 0 UV-I 0 W/m 3,2 km/h (1 Bft)
01.05.2011 21:20 11,5 C 51 % 1011,8 hPa 0,0 mm 0,0 km/h (0 Bft) N-NO 22 0 min 0 UV-I 0 W/m 4,8 km/h (1 Bft)
01.05.2011 21:30 11,2 C 53 % 1012,0 hPa 0,0 mm 0,0 km/h (0 Bft) N-NO 22 0 min 0 UV-I 0 W/m 4,8 km/h (1 Bft)
01.05.2011 21:40 10,8 C 54 % 1012,0 hPa 0,0 mm 0,0 km/h (0 Bft) N-NO 22 0 min 0 UV-I 0 W/m 3,2 km/h (1 Bft)
01.05.2011 21:50 10,6 C 55 % 1012,1 hPa 0,0 mm 0,0 km/h (0 Bft) N-NO 22 0 min 0 UV-I 0 W/m 1,6 km/h (1 Bft)
01.05.2011 22:00 10,2 C 56 % 1012,2 hPa 0,0 mm 0,0 km/h (0 Bft) N-NO 22 0 min 0 UV-I 0 W/m 1,6 km/h (1 Bft)
01.05.2011 22:10 9,9 C 57 % 1012,1 hPa 0,0 mm 0,0 km/h (0 Bft) N-NO 22 0 min 0 UV-I 0 W/m 1,6 km/h (1 Bft)
01.05.2011 22:20 9,7 C 59 % 1012,0 hPa 0,0 mm 0,0 km/h (0 Bft) N-NO 22 0 min 0 UV-I 0 W/m 1,6 km/h (1 Bft)
01.05.2011 22:30 9,3 C 61 % 1012,0 hPa 0,0 mm 0,0 km/h (0 Bft) N-NO 22 0 min 0 UV-I 0 W/m 1,6 km/h (1 Bft)
01.05.2011 22:40 8,9 C 62 % 1012,1 hPa 0,0 mm 0,0 km/h (0 Bft) N-NO 22 0 min 0 UV-I 0 W/m 1,6 km/h (1 Bft)
01.05.2011 22:50 8,8 C 61 % 1012,2 hPa 0,0 mm 0,0 km/h (0 Bft) N 0 0 min 0 UV-I 0 W/m 0,0 km/h (0 Bft)
01.05.2011 23:00 8,7 C 62 % 1012,2 hPa 0,0 mm 0,0 km/h (0 Bft) N-NO 22 0 min 0 UV-I 0 W/m 1,6 km/h (1 Bft)
01.05.2011 23:10 8,4 C 63 % 1012,2 hPa 0,0 mm 0,0 km/h (0 Bft) NO 45 0 min 0 UV-I 0 W/m 3,2 km/h (1 Bft)
01.05.2011 23:20 8,3 C 64 % 1012,2 hPa 0,0 mm 0,0 km/h (0 Bft) NO 45 0 min 0 UV-I 0 W/m 3,2 km/h (1 Bft)
01.05.2011 23:30 8,2 C 64 % 1012,2 hPa 0,0 mm 0,0 km/h (0 Bft) NO 45 0 min 0 UV-I 0 W/m 1,6 km/h (1 Bft)
01.05.2011 23:40 7,9 C 66 % 1012,3 hPa 0,0 mm 0,0 km/h (0 Bft) N 0 0 min 0 UV-I 0 W/m 0,0 km/h (0 Bft)
01.05.2011 23:50 7,9 C 67 % 1012,3 hPa 0,0 mm 1,6 km/h (1 Bft) N 360 0 min 0 UV-I 0 W/m 6,4 km/h (2 Bft)
_ Min-Zeit 06:20 13:00 17:10 - 02:00 - - - - - 02:50
Minimum _ 4,9 C 34 % 1011,0 hPa - 0,0 km/h (0 Bft) - - - - - 0,0 km/h (0 Bft)
_ Max-Zeit 15:40 06:30 09:30 00:00 13:00 - - 07:30 12:10 13:30 13:10
Maximum _ 19,7 C 73 % 1012,8 hPa 0,0 mm 11,3 km/h
O (2 Bft)
- - 10 min 6 UV-I 879 W/m 29,0 km/h
O-SO (5 Bft)
Durchschnitt _ 12,3 C 52 % 1011,9 hPa #0,0 mm 3,8 km/h (1 Bft) O-NO - #12:20 h 3 UV-I 505 W/m 12,1 km/h (2 Bft)